Time;durP1;ratioP1;P1;durP2;ratioP2;P2;SDS_P1;SDS_P2;PMS_P1;PMS_P2;Temp;Humidity;BMP_temperature;BMP_pressure;BME280_temperature;BME280_humidity;BME280_pressure;Samples;Min_cycle;Max_cycle;Signal;HPM_P1;HPM_P2
2021/12/24 00:00:10;;;;;;;;;;;16.50;36.50;;;;;;5097078;28;20007;-61
2021/12/24 00:02:36;;;;;;;;;;;16.50;36.50;;;;;;5097056;28;19908;-60
2021/12/24 00:05:03;;;;;;;;;;;16.50;36.60;;;;;;5097041;28;20303;-61
2021/12/24 00:07:28;;;;;;;;;;;16.50;36.60;;;;;;5096823;28;19908;-61
2021/12/24 00:09:53;;;;;;;;;;;16.50;36.60;;;;;;5097206;28;19999;-60
2021/12/24 00:12:21;;;;;;;;;;;16.50;36.60;;;;;;5096907;28;19915;-60
2021/12/24 00:14:51;;;;;;;;;;;16.50;36.60;;;;;;5096841;28;19939;-61
2021/12/24 00:17:24;;;;;;;;;;;16.50;36.70;;;;;;5097135;28;19956;-61
2021/12/24 00:36:15;;;;;;;;;;;16.50;36.80;;;;;;5096536;28;19965;-61
2021/12/24 00:38:41;;;;;;;;;;;16.50;36.80;;;;;;5095150;28;19916;-61
2021/12/24 00:41:06;;;;;;;;;;;16.50;36.80;;;;;;5096716;28;19915;-61
2021/12/24 00:43:32;;;;;;;;;;;16.50;36.90;;;;;;5096549;28;20010;-61
2021/12/24 00:45:57;;;;;;;;;;;16.50;36.90;;;;;;5096252;28;20264;-61
2021/12/24 00:48:22;;;;;;;;;;;16.50;36.90;;;;;;5096498;28;20373;-62
2021/12/24 00:56:14;;;;;;;;;;;16.40;36.90;;;;;;5072252;28;19916;-61
2021/12/24 00:58:40;;;;;;;;;;;16.50;37.00;;;;;;5095807;28;19973;-61
2021/12/24 01:01:06;;;;;;;;;;;16.50;37.00;;;;;;5095927;28;19998;-60
2021/12/24 01:03:32;;;;;;;;;;;16.50;37.10;;;;;;5095948;28;19966;-61
2021/12/24 01:05:58;;;;;;;;;;;16.50;37.10;;;;;;5095858;28;19909;-62
2021/12/24 01:08:23;;;;;;;;;;;16.50;37.10;;;;;;5095714;28;20280;-61
2021/12/24 01:10:51;;;;;;;;;;;16.50;37.10;;;;;;5095784;28;19908;-61
2021/12/24 01:13:17;;;;;;;;;;;16.50;37.10;;;;;;5095674;28;19954;-61
2021/12/24 01:15:58;;;;;;;;;;;16.50;37.10;;;;;;5077528;28;19912;-61
2021/12/24 01:18:35;;;;;;;;;;;16.50;37.10;;;;;;5095476;28;19908;-61
2021/12/24 01:21:16;;;;;;;;;;;16.40;37.10;;;;;;5095545;28;19908;-61
2021/12/24 01:23:54;;;;;;;;;;;16.40;37.20;;;;;;5095727;28;19969;-61
2021/12/24 01:26:38;;;;;;;;;;;16.50;37.20;;;;;;5095509;28;19908;-61
2021/12/24 01:45:01;;;;;;;;;;;16.40;37.40;;;;;;5095177;28;20403;-61
2021/12/24 01:47:26;;;;;;;;;;;16.40;37.40;;;;;;5076879;28;20351;-61
2021/12/24 01:49:52;;;;;;;;;;;16.40;37.40;;;;;;5094758;28;19908;-61
2021/12/24 01:52:18;;;;;;;;;;;16.40;37.40;;;;;;5094985;28;19909;-61
2021/12/24 01:54:44;;;;;;;;;;;16.40;37.40;;;;;;5094880;28;20279;-61
2021/12/24 01:57:11;;;;;;;;;;;16.40;37.40;;;;;;5094823;28;19920;-61
2021/12/24 01:59:36;;;;;;;;;;;16.40;37.50;;;;;;5094485;28;19916;-61
2021/12/24 02:02:02;;;;;;;;;;;16.40;37.50;;;;;;5094997;28;19915;-62
2021/12/24 02:04:28;;;;;;;;;;;16.40;37.50;;;;;;5076590;28;20409;-61
2021/12/24 02:06:53;;;;;;;;;;;16.40;37.50;;;;;;5094735;28;19909;-61
2021/12/24 02:09:19;;;;;;;;;;;16.40;37.60;;;;;;5094612;28;19915;-61
2021/12/24 02:11:45;;;;;;;;;;;16.40;37.50;;;;;;5094524;28;19912;-61
2021/12/24 02:14:13;;;;;;;;;;;16.40;37.60;;;;;;5094875;28;19914;-61
2021/12/24 02:17:07;;;;;;;;;;;16.40;37.70;;;;;;5076352;28;19915;-61
2021/12/24 02:30:35;;;;;;;;;;;16.40;37.70;;;;;;5094563;28;19919;-61
2021/12/24 02:33:01;;;;;;;;;;;16.40;37.70;;;;;;5094407;28;19908;-61
2021/12/24 02:35:27;;;;;;;;;;;16.40;37.80;;;;;;5094244;28;19908;-61
2021/12/24 02:37:52;;;;;;;;;;;16.40;37.80;;;;;;5094194;28;19914;-61
2021/12/24 02:40:18;;;;;;;;;;;16.40;37.80;;;;;;5093945;28;20275;-61
2021/12/24 02:42:49;;;;;;;;;;;16.40;37.90;;;;;;5094012;28;19908;-61
2021/12/24 02:45:15;;;;;;;;;;;16.40;37.80;;;;;;5094046;28;20430;-61
2021/12/24 02:55:16;;;;;;;;;;;16.30;37.90;;;;;;5093970;28;19915;-61
2021/12/24 02:57:41;;;;;;;;;;;16.40;37.90;;;;;;5093632;28;20292;-61
2021/12/24 03:00:14;;;;;;;;;;;16.30;37.90;;;;;;5075588;28;19916;-61
2021/12/24 03:02:42;;;;;;;;;;;16.40;38.00;;;;;;5093276;28;19931;-61
2021/12/24 03:05:07;;;;;;;;;;;16.40;38.00;;;;;;5075853;28;19934;-61
2021/12/24 03:07:33;;;;;;;;;;;16.40;38.00;;;;;;5093560;28;19909;-61
2021/12/24 03:10:00;;;;;;;;;;;16.30;38.00;;;;;;5093597;28;19943;-61
2021/12/24 03:12:29;;;;;;;;;;;16.30;38.00;;;;;;5058915;28;19964;-61
2021/12/24 03:14:55;;;;;;;;;;;16.30;38.10;;;;;;5093729;28;20011;-61
2021/12/24 03:17:23;;;;;;;;;;;16.30;38.00;;;;;;5093664;28;20393;-61
2021/12/24 03:19:49;;;;;;;;;;;16.30;38.10;;;;;;5093730;28;20057;-61
2021/12/24 03:24:55;;;;;;;;;;;16.40;38.10;;;;;;5093756;28;20371;-61
2021/12/24 03:27:22;;;;;;;;;;;16.40;38.10;;;;;;5093592;28;19916;-61
2021/12/24 03:29:48;;;;;;;;;;;16.30;38.10;;;;;;5093728;28;19909;-61
2021/12/24 03:32:13;;;;;;;;;;;16.30;38.10;;;;;;5093378;28;19908;-61
2021/12/24 03:34:39;;;;;;;;;;;16.30;38.10;;;;;;5093612;28;19931;-61
2021/12/24 03:37:05;;;;;;;;;;;16.30;38.20;;;;;;5093221;28;19982;-61
2021/12/24 03:39:30;;;;;;;;;;;16.30;38.30;;;;;;5093180;28;19916;-61
2021/12/24 03:41:56;;;;;;;;;;;16.30;38.20;;;;;;5075149;28;19908;-61
2021/12/24 03:44:30;;;;;;;;;;;16.30;38.30;;;;;;5093290;28;19912;-61
2021/12/24 03:47:03;;;;;;;;;;;16.30;38.40;;;;;;5093307;28;20337;-61
2021/12/24 03:55:05;;;;;;;;;;;16.30;38.30;;;;;;5030796;28;20348;-61
2021/12/24 03:57:32;;;;;;;;;;;16.30;38.30;;;;;;5080074;28;19920;-61
2021/12/24 03:59:59;;;;;;;;;;;16.30;38.40;;;;;;5093299;28;19924;-61
2021/12/24 04:02:25;;;;;;;;;;;16.30;38.40;;;;;;5093146;28;19912;-61
2021/12/24 04:04:50;;;;;;;;;;;16.30;38.40;;;;;;5093281;28;20015;-61
2021/12/24 04:07:16;;;;;;;;;;;16.30;38.50;;;;;;5093065;28;19955;-61
2021/12/24 04:10:31;;;;;;;;;;;16.30;38.40;;;;;;5093128;28;20003;-61
2021/12/24 04:12:30;;;;;;;;;;;16.30;38.50;;;;;;5085151;28;19950;-61
2021/12/24 04:14:56;;;;;;;;;;;16.30;38.50;;;;;;5078592;28;19908;-61
2021/12/24 04:17:21;;;;;;;;;;;16.30;38.50;;;;;;5097064;28;19914;-61
2021/12/24 04:25:15;;;;;;;;;;;16.30;38.60;;;;;;5096684;28;19964;-61
2021/12/24 04:27:41;;;;;;;;;;;16.30;38.60;;;;;;5096403;28;20325;-61
2021/12/24 04:30:17;;;;;;;;;;;16.30;38.60;;;;;;5096557;28;19916;-61
2021/12/24 04:35:32;;;;;;;;;;;16.30;38.60;;;;;;5096407;28;20006;-61
2021/12/24 04:51:55;;;;;;;;;;;16.30;38.80;;;;;;5096449;28;19995;-61
2021/12/24 05:05:18;;;;;;;;;;;16.30;38.80;;;;;;5096261;28;19912;-61
2021/12/24 05:10:17;;;;;;;;;;;16.20;38.90;;;;;;5096113;28;19908;-61
2021/12/24 05:12:42;;;;;;;;;;;16.30;38.90;;;;;;5095675;28;20327;-61
2021/12/24 05:15:10;;;;;;;;;;;16.20;39.00;;;;;;5095653;28;20402;-61
2021/12/24 05:18:04;;;;;;;;;;;16.20;38.90;;;;;;5095505;28;20287;-61
2021/12/24 05:23:14;;;;;;;;;;;16.20;39.00;;;;;;5095796;28;20275;-61
2021/12/24 05:25:44;;;;;;;;;;;16.20;39.00;;;;;;5095105;28;19912;-61
2021/12/24 05:28:09;;;;;;;;;;;16.20;39.00;;;;;;5077209;28;20372;-61
2021/12/24 05:30:35;;;;;;;;;;;16.30;39.00;;;;;;5095344;28;19923;-62
2021/12/24 05:33:00;;;;;;;;;;;16.30;39.10;;;;;;5077241;28;19954;-62
2021/12/24 05:35:26;;;;;;;;;;;16.30;39.20;;;;;;5095513;28;19908;-62
2021/12/24 05:37:51;;;;;;;;;;;16.30;39.10;;;;;;5095065;28;19908;-61
2021/12/24 05:40:17;;;;;;;;;;;16.30;39.20;;;;;;5095209;28;19916;-61
2021/12/24 05:42:42;;;;;;;;;;;16.20;39.20;;;;;;5095248;28;20359;-61
2021/12/24 05:45:10;;;;;;;;;;;16.20;39.20;;;;;;5095059;28;19931;-61
2021/12/24 05:47:36;;;;;;;;;;;16.30;39.10;;;;;;5095037;28;19965;-61
2021/12/24 05:50:02;;;;;;;;;;;16.20;39.10;;;;;;5094954;28;19912;-61
2021/12/24 05:52:28;;;;;;;;;;;16.20;39.20;;;;;;5095046;28;19908;-61
2021/12/24 05:54:54;;;;;;;;;;;16.20;39.20;;;;;;5094900;28;20446;-61
2021/12/24 05:57:19;;;;;;;;;;;16.20;39.20;;;;;;5095103;28;19920;-61
2021/12/24 05:59:44;;;;;;;;;;;16.20;39.20;;;;;;5094771;28;19926;-62
2021/12/24 06:02:10;;;;;;;;;;;16.20;39.20;;;;;;5094768;28;19963;-62
2021/12/24 06:04:35;;;;;;;;;;;16.20;39.30;;;;;;5094686;28;19915;-61
2021/12/24 06:07:01;;;;;;;;;;;16.20;39.20;;;;;;5094697;28;19912;-62
2021/12/24 06:09:26;;;;;;;;;;;16.20;39.30;;;;;;5094585;28;19908;-61
2021/12/24 06:11:52;;;;;;;;;;;16.20;39.30;;;;;;5094781;28;20290;-61
2021/12/24 06:14:17;;;;;;;;;;;16.20;39.30;;;;;;5094719;28;19908;-61
2021/12/24 06:16:59;;;;;;;;;;;16.20;39.30;;;;;;5094680;28;19908;-61
2021/12/24 06:19:26;;;;;;;;;;;16.20;39.30;;;;;;5094327;28;19923;-62
2021/12/24 06:21:56;;;;;;;;;;;16.20;39.40;;;;;;5094357;28;20363;-63
2021/12/24 06:24:22;;;;;;;;;;;16.20;39.40;;;;;;5094314;28;19974;-62
2021/12/24 06:26:47;;;;;;;;;;;16.20;39.40;;;;;;5094195;28;20379;-61
2021/12/24 06:29:13;;;;;;;;;;;16.20;39.40;;;;;;5094115;28;19944;-61
2021/12/24 06:31:38;;;;;;;;;;;16.20;39.40;;;;;;5093878;28;20004;-61
2021/12/24 06:34:04;;;;;;;;;;;16.20;39.50;;;;;;5093784;28;19908;-61
2021/12/24 06:36:34;;;;;;;;;;;16.20;39.50;;;;;;5092975;28;19908;-61
2021/12/24 06:38:59;;;;;;;;;;;16.20;39.50;;;;;;5093743;28;20296;-61
2021/12/24 06:41:25;;;;;;;;;;;16.20;39.50;;;;;;5093994;28;19948;-61
2021/12/24 06:43:50;;;;;;;;;;;16.20;39.50;;;;;;5093775;28;19908;-62
2021/12/24 06:46:16;;;;;;;;;;;16.20;39.70;;;;;;5093640;28;19919;-61
2021/12/24 06:48:41;;;;;;;;;;;16.20;39.60;;;;;;5093574;28;19908;-61
2021/12/24 06:51:07;;;;;;;;;;;16.20;39.60;;;;;;5094050;28;19975;-61
2021/12/24 06:53:33;;;;;;;;;;;16.20;39.60;;;;;;5093563;28;19908;-62
2021/12/24 06:55:58;;;;;;;;;;;16.20;39.60;;;;;;5093675;28;19934;-61
2021/12/24 06:58:24;;;;;;;;;;;16.20;39.60;;;;;;5093623;28;19966;-61
2021/12/24 07:00:49;;;;;;;;;;;16.20;39.70;;;;;;5093639;28;20295;-61
2021/12/24 07:03:14;;;;;;;;;;;16.20;39.70;;;;;;5093871;28;19913;-61
2021/12/24 07:05:40;;;;;;;;;;;16.20;39.60;;;;;;5093596;28;19908;-61
2021/12/24 07:08:05;;;;;;;;;;;16.20;39.80;;;;;;5093689;28;19908;-61
2021/12/24 07:10:31;;;;;;;;;;;16.20;39.70;;;;;;5093779;28;20283;-61
2021/12/24 07:12:56;;;;;;;;;;;16.20;39.70;;;;;;5093670;28;20012;-61
2021/12/24 07:15:22;;;;;;;;;;;16.10;39.70;;;;;;5093686;28;19998;-61
2021/12/24 07:17:48;;;;;;;;;;;16.20;39.80;;;;;;5093298;28;19908;-61
2021/12/24 07:20:13;;;;;;;;;;;16.20;39.80;;;;;;5093417;28;20371;-61
2021/12/24 07:22:39;;;;;;;;;;;16.20;39.80;;;;;;5075362;28;19957;-61
2021/12/24 07:25:06;;;;;;;;;;;16.10;39.80;;;;;;5093644;28;19957;-62
2021/12/24 07:27:32;;;;;;;;;;;16.20;39.80;;;;;;5093343;28;19949;-61
2021/12/24 07:29:57;;;;;;;;;;;16.10;39.80;;;;;;5093286;28;19915;-61
2021/12/24 07:32:23;;;;;;;;;;;16.10;39.90;;;;;;5093230;28;19908;-61
2021/12/24 07:34:48;;;;;;;;;;;16.10;39.80;;;;;;5093272;28;19909;-61
2021/12/24 07:37:14;;;;;;;;;;;16.20;39.80;;;;;;5093327;28;19916;-61
2021/12/24 07:39:39;;;;;;;;;;;16.10;39.90;;;;;;5093286;28;19916;-61
2021/12/24 07:42:05;;;;;;;;;;;16.10;39.90;;;;;;5093203;28;19919;-61
2021/12/24 07:44:33;;;;;;;;;;;16.20;40.00;;;;;;5093428;28;19934;-61
2021/12/24 07:47:01;;;;;;;;;;;16.10;39.90;;;;;;5093230;28;19915;-62
2021/12/24 07:52:08;;;;;;;;;;;16.10;40.00;;;;;;5097264;28;20276;-62
2021/12/24 07:54:36;;;;;;;;;;;16.10;39.90;;;;;;5097127;28;19909;-61
2021/12/24 07:57:02;;;;;;;;;;;16.10;40.00;;;;;;5096986;28;19921;-61
2021/12/24 07:59:29;;;;;;;;;;;16.10;40.00;;;;;;5096972;28;19916;-62
2021/12/24 08:01:55;;;;;;;;;;;16.10;40.00;;;;;;5097284;28;19908;-63
2021/12/24 08:04:20;;;;;;;;;;;16.10;40.10;;;;;;5096867;28;19998;-62
2021/12/24 08:06:46;;;;;;;;;;;16.10;40.10;;;;;;5096585;28;20010;-62
2021/12/24 08:09:12;;;;;;;;;;;16.20;40.20;;;;;;5096759;28;19908;-61
2021/12/24 08:11:38;;;;;;;;;;;16.10;40.20;;;;;;5096582;28;19931;-61
2021/12/24 08:14:05;;;;;;;;;;;16.10;40.20;;;;;;5096679;28;19915;-61
2021/12/24 08:16:31;;;;;;;;;;;16.10;40.20;;;;;;5096798;28;19915;-61
2021/12/24 08:18:56;;;;;;;;;;;16.10;40.20;;;;;;5096642;28;19939;-60
2021/12/24 08:21:22;;;;;;;;;;;16.10;40.20;;;;;;5096371;28;19908;-62
2021/12/24 08:23:48;;;;;;;;;;;16.10;40.30;;;;;;5096607;28;19908;-62
2021/12/24 08:26:14;;;;;;;;;;;16.10;40.30;;;;;;5096711;28;19995;-61
2021/12/24 08:28:40;;;;;;;;;;;16.10;40.30;;;;;;5096275;28;20011;-61
2021/12/24 08:31:06;;;;;;;;;;;16.10;40.20;;;;;;5096234;28;19947;-61
2021/12/24 08:33:33;;;;;;;;;;;16.10;40.30;;;;;;5096492;28;20355;-62
2021/12/24 08:35:59;;;;;;;;;;;16.10;40.30;;;;;;5096277;28;19909;-61
2021/12/24 08:38:24;;;;;;;;;;;16.10;40.40;;;;;;5096395;28;19915;-61
2021/12/24 08:40:50;;;;;;;;;;;16.10;40.40;;;;;;5096033;28;19916;-62
2021/12/24 08:43:15;;;;;;;;;;;16.10;40.30;;;;;;5096630;28;19915;-61
2021/12/24 08:45:41;;;;;;;;;;;16.10;40.50;;;;;;5096215;28;19937;-61
2021/12/24 08:48:06;;;;;;;;;;;16.10;40.40;;;;;;5096058;28;19908;-61
2021/12/24 08:50:32;;;;;;;;;;;16.10;40.30;;;;;;5095965;28;19914;-61
2021/12/24 08:52:57;;;;;;;;;;;16.10;40.40;;;;;;5096229;28;20360;-60
2021/12/24 08:55:23;;;;;;;;;;;16.10;40.50;;;;;;5095861;28;19930;-61
2021/12/24 08:57:48;;;;;;;;;;;16.10;40.40;;;;;;5095528;28;19920;-61
2021/12/24 09:00:14;;;;;;;;;;;16.10;40.60;;;;;;5076574;28;19916;-61
2021/12/24 09:02:40;;;;;;;;;;;16.10;40.40;;;;;;5095827;28;19915;-61
2021/12/24 09:05:07;;;;;;;;;;;16.10;40.50;;;;;;5095853;28;19916;-61
2021/12/24 09:07:32;;;;;;;;;;;16.10;40.50;;;;;;5095886;28;20274;-61
2021/12/24 09:09:58;;;;;;;;;;;16.10;40.50;;;;;;5095854;28;19999;-61
2021/12/24 09:12:24;;;;;;;;;;;16.10;40.60;;;;;;5095692;28;20283;-62
2021/12/24 09:14:50;;;;;;;;;;;16.10;40.60;;;;;;5095869;28;19974;-62
2021/12/24 09:17:16;;;;;;;;;;;16.10;40.60;;;;;;5095578;28;19912;-62
2021/12/24 09:19:47;;;;;;;;;;;16.10;40.60;;;;;;5095404;28;19923;-61
2021/12/24 09:22:17;;;;;;;;;;;16.10;40.60;;;;;;5095310;28;19908;-61
2021/12/24 09:24:44;;;;;;;;;;;16.10;40.70;;;;;;5095353;28;19915;-62
2021/12/24 09:27:10;;;;;;;;;;;16.10;40.70;;;;;;5077251;28;19959;-62
2021/12/24 09:29:35;;;;;;;;;;;16.10;40.70;;;;;;5095241;28;19912;-61
2021/12/24 09:32:01;;;;;;;;;;;16.10;40.70;;;;;;5095326;28;19908;-62
2021/12/24 09:34:27;;;;;;;;;;;16.10;40.80;;;;;;5095036;28;19908;-62
2021/12/24 09:36:52;;;;;;;;;;;16.10;40.80;;;;;;5095167;28;19912;-62
2021/12/24 09:39:18;;;;;;;;;;;16.10;40.80;;;;;;5095100;28;19950;-62
2021/12/24 09:41:43;;;;;;;;;;;16.10;40.70;;;;;;5095320;28;19955;-61
2021/12/24 09:44:09;;;;;;;;;;;16.10;40.70;;;;;;5095319;28;19955;-62
2021/12/24 09:46:40;;;;;;;;;;;16.10;40.80;;;;;;5094807;28;19912;-62
2021/12/24 09:49:06;;;;;;;;;;;16.10;40.80;;;;;;5094658;28;20382;-61
2021/12/24 09:51:35;;;;;;;;;;;16.10;40.70;;;;;;5076575;28;20275;-62
2021/12/24 09:54:00;;;;;;;;;;;16.10;40.80;;;;;;5094467;28;20348;-62
2021/12/24 09:56:26;;;;;;;;;;;16.10;40.80;;;;;;5094426;28;20429;-62
2021/12/24 09:58:51;;;;;;;;;;;16.10;40.80;;;;;;5094364;28;20301;-62
2021/12/24 10:01:30;;;;;;;;;;;16.10;40.80;;;;;;5094428;28;19915;-61
2021/12/24 10:04:02;;;;;;;;;;;16.10;40.80;;;;;;5094782;28;19912;-62
2021/12/24 10:06:27;;;;;;;;;;;16.10;40.90;;;;;;5094404;28;20418;-62
2021/12/24 10:09:01;;;;;;;;;;;16.10;40.80;;;;;;5094627;28;20082;-62
2021/12/24 10:11:29;;;;;;;;;;;16.10;40.90;;;;;;5094381;28;20006;-61
2021/12/24 10:14:02;;;;;;;;;;;16.10;40.90;;;;;;5076214;28;19908;-61
2021/12/24 10:16:28;;;;;;;;;;;16.10;41.00;;;;;;5076023;28;19908;-62
2021/12/24 10:18:54;;;;;;;;;;;16.10;40.90;;;;;;5094105;28;19909;-62
2021/12/24 10:21:22;;;;;;;;;;;16.10;40.90;;;;;;5094154;28;19908;-61
2021/12/24 10:23:55;;;;;;;;;;;16.10;41.00;;;;;;5094209;28;20352;-62
2021/12/24 10:26:28;;;;;;;;;;;16.10;41.00;;;;;;5094233;28;19908;-62
2021/12/24 10:28:56;;;;;;;;;;;16.10;41.00;;;;;;5094245;28;19993;-61
2021/12/24 10:31:23;;;;;;;;;;;16.10;41.00;;;;;;5093958;28;19908;-61
2021/12/24 10:34:05;;;;;;;;;;;16.10;41.00;;;;;;5094018;28;19908;-62
2021/12/24 10:36:30;;;;;;;;;;;16.10;41.00;;;;;;5094001;28;20256;-61
2021/12/24 10:38:56;;;;;;;;;;;16.10;41.00;;;;;;5094092;28;19908;-61
2021/12/24 10:41:24;;;;;;;;;;;16.10;41.10;;;;;;5093911;28;19908;-62
2021/12/24 10:43:51;;;;;;;;;;;16.00;41.10;;;;;;5093911;28;19908;-62
2021/12/24 10:46:22;;;;;;;;;;;16.10;41.10;;;;;;5093801;28;19920;-61
2021/12/24 10:49:03;;;;;;;;;;;16.00;41.10;;;;;;5093590;28;20486;-62
2021/12/24 10:51:54;;;;;;;;;;;16.00;41.10;;;;;;5094110;28;20019;-62
2021/12/24 10:54:20;;;;;;;;;;;16.00;41.10;;;;;;5093669;28;19908;-62
2021/12/24 10:56:45;;;;;;;;;;;16.10;41.20;;;;;;5093242;28;19946;-62
2021/12/24 10:59:12;;;;;;;;;;;16.10;41.20;;;;;;5093741;28;19963;-62
2021/12/24 11:01:38;;;;;;;;;;;16.10;41.20;;;;;;5093471;28;19908;-61
2021/12/24 11:04:03;;;;;;;;;;;16.10;41.20;;;;;;5093428;28;20343;-62
2021/12/24 11:06:30;;;;;;;;;;;16.10;41.20;;;;;;5093346;28;20325;-62
2021/12/24 11:08:55;;;;;;;;;;;16.10;41.30;;;;;;5093275;28;20025;-61
2021/12/24 11:11:21;;;;;;;;;;;16.10;41.20;;;;;;5093360;28;19915;-61
2021/12/24 11:13:47;;;;;;;;;;;16.10;41.30;;;;;;5093511;28;20366;-62
2021/12/24 11:16:17;;;;;;;;;;;16.10;41.30;;;;;;5093458;28;20041;-62
2021/12/24 11:18:46;;;;;;;;;;;16.10;41.40;;;;;;5093319;28;19908;-62
2021/12/24 11:21:11;;;;;;;;;;;16.00;41.30;;;;;;5093279;28;19915;-61
2021/12/24 11:23:38;;;;;;;;;;;16.10;41.30;;;;;;5074453;28;19912;-61
2021/12/24 11:26:09;;;;;;;;;;;16.00;41.40;;;;;;5093402;28;19908;-60
2021/12/24 11:28:35;;;;;;;;;;;16.10;41.30;;;;;;5093356;28;19912;-61
2021/12/24 11:31:02;;;;;;;;;;;16.10;41.40;;;;;;5075028;28;19915;-61
2021/12/24 11:33:28;;;;;;;;;;;16.10;41.40;;;;;;5093190;28;19908;-62
2021/12/24 11:35:55;;;;;;;;;;;16.10;41.40;;;;;;5075103;28;19908;-61
2021/12/24 11:38:22;;;;;;;;;;;16.10;41.50;;;;;;5092912;28;20393;-62
2021/12/24 11:40:48;;;;;;;;;;;16.00;41.50;;;;;;5093027;28;19916;-61
2021/12/24 11:43:14;;;;;;;;;;;16.00;41.50;;;;;;5074843;28;19961;-62
2021/12/24 11:45:39;;;;;;;;;;;16.00;41.40;;;;;;5092961;28;20170;-62
2021/12/24 11:48:06;;;;;;;;;;;16.00;41.40;;;;;;5093146;28;20313;-60
2021/12/24 11:50:32;;;;;;;;;;;16.10;41.50;;;;;;5093200;28;19914;-60
2021/12/24 11:53:00;;;;;;;;;;;16.00;41.50;;;;;;5092802;28;19915;-60
2021/12/24 11:55:30;;;;;;;;;;;16.00;41.60;;;;;;5093096;28;20000;-60
2021/12/24 11:57:59;;;;;;;;;;;16.00;41.50;;;;;;5092727;28;19924;-61
2021/12/24 12:00:35;;;;;;;;;;;16.00;41.60;;;;;;5092857;28;19923;-61
2021/12/24 12:03:00;;;;;;;;;;;16.00;41.60;;;;;;5092944;28;19915;-61
2021/12/24 12:05:36;;;;;;;;;;;16.00;41.60;;;;;;5093070;28;19912;-60
2021/12/24 12:08:20;;;;;;;;;;;16.00;41.60;;;;;;5092599;28;19908;-61
2021/12/24 12:10:50;;;;;;;;;;;16.00;41.60;;;;;;5092873;28;19912;-61
2021/12/24 12:13:35;;;;;;;;;;;16.00;41.60;;;;;;5093080;28;19912;-62
2021/12/24 12:16:00;;;;;;;;;;;16.00;41.60;;;;;;5092701;28;20009;-62
2021/12/24 12:18:30;;;;;;;;;;;16.10;41.70;;;;;;5093093;28;20351;-62
2021/12/24 12:21:09;;;;;;;;;;;16.10;41.80;;;;;;5092514;28;19920;-62
2021/12/24 12:26:31;;;;;;;;;;;16.10;41.70;;;;;;5092595;28;19908;-62
2021/12/24 12:29:15;;;;;;;;;;;16.00;41.70;;;;;;5092636;28;19909;-61
2021/12/24 12:31:41;;;;;;;;;;;16.10;41.70;;;;;;5092471;28;19944;-61
2021/12/24 12:34:48;;;;;;;;;;;16.10;41.80;;;;;;5092492;28;19915;-61
2021/12/24 12:37:15;;;;;;;;;;;16.10;41.80;;;;;;5033686;28;19909;-61
2021/12/24 12:39:41;;;;;;;;;;;16.10;41.80;;;;;;5033458;28;20083;-61
2021/12/24 12:42:07;;;;;;;;;;;16.10;41.80;;;;;;5064520;28;20367;-61
2021/12/24 12:44:33;;;;;;;;;;;16.10;41.80;;;;;;5096287;28;20020;-61
2021/12/24 12:47:09;;;;;;;;;;;16.10;41.80;;;;;;5095980;28;19916;-61
2021/12/24 12:49:36;;;;;;;;;;;16.00;41.80;;;;;;5095969;28;20011;-62
2021/12/24 12:52:03;;;;;;;;;;;16.00;41.80;;;;;;5077780;28;20318;-62
2021/12/24 12:54:48;;;;;;;;;;;16.10;41.80;;;;;;5095747;28;19908;-61
2021/12/24 12:57:23;;;;;;;;;;;16.10;41.80;;;;;;5095938;28;19920;-61
2021/12/24 13:00:07;;;;;;;;;;;16.10;41.90;;;;;;5095676;28;19962;-61
2021/12/24 13:02:51;;;;;;;;;;;16.00;41.90;;;;;;5095975;28;19999;-61
2021/12/24 13:05:16;;;;;;;;;;;16.00;41.90;;;;;;5095685;28;19908;-62
2021/12/24 13:07:42;;;;;;;;;;;16.00;42.00;;;;;;5095572;28;20014;-63
2021/12/24 13:10:07;;;;;;;;;;;16.00;42.00;;;;;;5077767;28;19908;-62
2021/12/24 13:12:33;;;;;;;;;;;16.00;42.00;;;;;;5096110;28;20000;-66
2021/12/24 13:14:59;;;;;;;;;;;16.00;42.00;;;;;;5095349;28;19912;-62
2021/12/24 13:17:31;;;;;;;;;;;16.00;42.10;;;;;;5095652;28;19995;-62
2021/12/24 13:20:09;;;;;;;;;;;16.00;42.10;;;;;;5095632;28;19916;-61
2021/12/24 13:22:37;;;;;;;;;;;16.00;42.00;;;;;;5095551;28;19915;-61
2021/12/24 13:25:16;;;;;;;;;;;16.00;42.00;;;;;;5095368;28;19916;-61
2021/12/24 13:27:43;;;;;;;;;;;16.00;42.00;;;;;;5095353;28;20439;-61
2021/12/24 13:30:12;;;;;;;;;;;16.00;42.10;;;;;;5095315;28;19951;-61
2021/12/24 13:32:38;;;;;;;;;;;16.00;42.10;;;;;;5095299;28;20007;-62
2021/12/24 13:35:04;;;;;;;;;;;16.00;42.20;;;;;;5095236;28;20025;-61
2021/12/24 13:37:30;;;;;;;;;;;16.00;42.10;;;;;;5095072;28;19959;-61
2021/12/24 13:39:56;;;;;;;;;;;16.00;42.10;;;;;;5095096;28;19963;-62
2021/12/24 13:42:21;;;;;;;;;;;16.00;42.20;;;;;;5095296;28;19908;-61
2021/12/24 13:44:50;;;;;;;;;;;16.00;42.20;;;;;;5094960;28;19991;-61
2021/12/24 13:47:29;;;;;;;;;;;16.00;42.20;;;;;;5094642;28;20231;-61
2021/12/24 13:50:08;;;;;;;;;;;16.00;42.30;;;;;;5094912;28;19915;-61
2021/12/24 13:55:18;;;;;;;;;;;16.00;42.20;;;;;;5094971;28;19916;-61
2021/12/24 13:58:13;;;;;;;;;;;16.00;42.30;;;;;;5094575;28;19927;-61
2021/12/24 14:00:40;;;;;;;;;;;16.00;42.20;;;;;;5081360;28;19916;-61
2021/12/24 14:03:08;;;;;;;;;;;16.00;42.30;;;;;;5094760;28;20301;-61
2021/12/24 14:05:42;;;;;;;;;;;16.00;42.20;;;;;;5094883;28;19915;-61
2021/12/24 14:08:12;;;;;;;;;;;16.00;42.30;;;;;;5094563;28;20264;-61
2021/12/24 14:10:38;;;;;;;;;;;16.00;42.30;;;;;;5094878;28;20272;-61
2021/12/24 14:13:12;;;;;;;;;;;16.00;42.30;;;;;;5094485;28;19915;-62
2021/12/24 14:15:54;;;;;;;;;;;16.00;42.40;;;;;;5094694;28;19999;-61
2021/12/24 14:18:30;;;;;;;;;;;16.00;42.40;;;;;;5094780;28;19935;-61
2021/12/24 14:23:30;;;;;;;;;;;16.00;42.40;;;;;;5094853;28;19912;-61
2021/12/24 14:25:57;;;;;;;;;;;16.00;42.40;;;;;;5094245;28;20274;-62
2021/12/24 14:28:23;;;;;;;;;;;16.00;42.40;;;;;;5094142;28;20363;-63
2021/12/24 14:30:48;;;;;;;;;;;16.00;42.40;;;;;;5094002;28;19915;-61
2021/12/24 14:33:14;;;;;;;;;;;16.00;42.40;;;;;;5094387;28;19908;-61
2021/12/24 14:35:44;;;;;;;;;;;16.00;42.40;;;;;;5094395;28;20252;-61
2021/12/24 14:38:15;;;;;;;;;;;16.00;42.50;;;;;;5094069;28;19908;-61
2021/12/24 14:40:40;;;;;;;;;;;16.00;42.50;;;;;;5093601;28;19916;-61
2021/12/24 14:43:10;;;;;;;;;;;16.00;42.50;;;;;;5093873;28;20244;-61
2021/12/24 14:45:35;;;;;;;;;;;16.00;42.50;;;;;;5093948;28;19930;-62
2021/12/24 14:48:12;;;;;;;;;;;16.00;42.50;;;;;;5093805;28;19908;-62
2021/12/24 14:50:44;;;;;;;;;;;16.00;42.50;;;;;;5093735;28;19909;-62
2021/12/24 14:53:14;;;;;;;;;;;16.00;42.60;;;;;;5093652;28;19908;-62
2021/12/24 14:55:44;;;;;;;;;;;16.00;42.60;;;;;;5093999;28;20248;-62
2021/12/24 14:58:10;;;;;;;;;;;16.00;42.60;;;;;;5092856;28;19943;-61
2021/12/24 15:00:37;;;;;;;;;;;16.00;42.60;;;;;;5093616;28;20359;-61
2021/12/24 15:03:05;;;;;;;;;;;16.00;42.70;;;;;;5075432;28;19916;-61
2021/12/24 15:05:35;;;;;;;;;;;16.00;42.60;;;;;;5093882;28;20379;-61
2021/12/24 15:08:09;;;;;;;;;;;16.00;42.60;;;;;;5093609;28;19987;-61
2021/12/24 15:10:35;;;;;;;;;;;16.00;42.60;;;;;;5093880;28;19908;-61
2021/12/24 15:13:08;;;;;;;;;;;16.00;42.70;;;;;;5093775;28;20053;-62
2021/12/24 15:15:34;;;;;;;;;;;16.00;42.70;;;;;;5093572;28;20299;-61
2021/12/24 15:17:59;;;;;;;;;;;16.00;42.70;;;;;;5093428;28;19908;-61
2021/12/24 15:20:27;;;;;;;;;;;16.00;42.70;;;;;;5093485;28;20385;-61
2021/12/24 15:22:52;;;;;;;;;;;16.00;42.70;;;;;;5093668;28;19995;-62
2021/12/24 15:25:18;;;;;;;;;;;15.90;42.60;;;;;;5093319;28;19958;-61
2021/12/24 15:27:43;;;;;;;;;;;16.00;42.80;;;;;;5093561;28;19944;-61
2021/12/24 15:30:10;;;;;;;;;;;16.00;42.80;;;;;;5093468;28;20370;-61
2021/12/24 15:32:36;;;;;;;;;;;16.00;42.80;;;;;;5075231;28;19919;-61
2021/12/24 15:35:03;;;;;;;;;;;15.90;42.90;;;;;;5093630;28;19909;-61
2021/12/24 15:37:28;;;;;;;;;;;16.00;42.80;;;;;;5093592;28;19909;-62
2021/12/24 15:39:53;;;;;;;;;;;15.90;42.80;;;;;;5093031;28;20283;-61
2021/12/24 15:42:20;;;;;;;;;;;15.90;42.80;;;;;;5093150;28;19909;-62
2021/12/24 15:44:48;;;;;;;;;;;15.90;42.80;;;;;;5093131;28;20374;-62
2021/12/24 15:47:14;;;;;;;;;;;16.00;42.80;;;;;;5093169;28;19915;-61
2021/12/24 15:49:39;;;;;;;;;;;16.00;42.90;;;;;;5093122;28;19915;-61
2021/12/24 15:52:05;;;;;;;;;;;16.00;42.90;;;;;;5093466;28;19908;-61
2021/12/24 15:54:30;;;;;;;;;;;16.00;42.90;;;;;;5093210;28;19916;-62
2021/12/24 15:56:56;;;;;;;;;;;15.90;43.00;;;;;;5093003;28;20375;-61
2021/12/24 15:59:22;;;;;;;;;;;15.90;42.90;;;;;;5093137;28;19916;-61
2021/12/24 16:01:48;;;;;;;;;;;15.90;42.90;;;;;;5093241;28;20025;-61
2021/12/24 16:04:13;;;;;;;;;;;16.00;42.90;;;;;;5093039;28;20371;-61
2021/12/24 16:06:39;;;;;;;;;;;16.00;42.90;;;;;;5092903;28;19912;-61
2021/12/24 16:09:04;;;;;;;;;;;15.90;42.90;;;;;;5094399;28;20371;-61
2021/12/24 16:11:30;;;;;;;;;;;15.90;43.00;;;;;;5096821;28;19930;-61
2021/12/24 16:13:55;;;;;;;;;;;15.90;43.00;;;;;;5097022;28;19955;-61